createdAt,value
2022-10-24T00:01:48.672Z,95.75
2022-10-24T00:04:17.360Z,86.07
2022-10-24T00:06:46.014Z,87.95
2022-10-24T00:09:14.666Z,84.20
2022-10-24T00:11:44.745Z,94.25
2022-10-24T00:14:13.438Z,93.30
2022-10-24T00:16:41.753Z,86.85
2022-10-24T00:19:10.411Z,84.30
2022-10-24T00:21:39.310Z,90.47
2022-10-24T00:24:08.689Z,80.00
2022-10-24T00:26:37.776Z,96.95
2022-10-24T00:29:08.002Z,100.15
2022-10-24T00:31:36.581Z,79.38
2022-10-24T00:34:05.779Z,87.07
2022-10-24T00:36:34.558Z,82.10
2022-10-24T00:39:03.412Z,84.32
2022-10-24T00:41:35.289Z,80.85
2022-10-24T00:44:17.184Z,69.70
2022-10-24T00:46:48.475Z,74.32
2022-10-24T00:49:19.469Z,70.97
2022-10-24T00:51:50.459Z,67.65
2022-10-24T00:54:24.176Z,65.25
2022-10-24T00:57:00.841Z,75.65
2022-10-24T00:59:31.458Z,64.68
2022-10-24T01:02:00.237Z,62.72
2022-10-24T01:04:28.631Z,69.13
2022-10-24T01:07:05.319Z,67.25
2022-10-24T01:09:44.701Z,67.60
2022-10-24T01:12:21.579Z,65.40
2022-10-24T01:14:57.587Z,65.18
2022-10-24T01:17:31.411Z,61.88
2022-10-24T01:20:31.670Z,61.40
2022-10-24T01:23:22.297Z,63.17
2022-10-24T01:26:00.734Z,57.80
2022-10-24T01:28:32.249Z,69.03
2022-10-24T01:31:06.876Z,76.53
2022-10-24T01:33:38.416Z,78.57
2022-10-24T01:36:09.760Z,76.50
2022-10-24T01:38:42.643Z,90.57
2022-10-24T01:41:12.918Z,94.43
2022-10-24T01:43:43.603Z,96.82
2022-10-24T01:46:16.658Z,90.85
2022-10-24T01:48:47.241Z,78.47
2022-10-24T01:51:16.884Z,83.13
2022-10-24T01:53:46.239Z,118.60
2022-10-24T01:56:14.921Z,119.95
2022-10-24T01:58:43.313Z,117.40
2022-10-24T02:01:17.106Z,83.75
2022-10-24T02:03:49.084Z,77.65
2022-10-24T02:06:20.601Z,74.53
2022-10-24T02:08:53.051Z,74.95
2022-10-24T02:11:21.880Z,73.35
2022-10-24T02:13:53.831Z,64.15
2022-10-24T02:16:24.032Z,64.03
2022-10-24T02:18:54.650Z,67.47
2022-10-24T02:21:30.430Z,69.95
2022-10-24T02:24:03.135Z,60.22
2022-10-24T02:26:34.796Z,70.97
2022-10-24T02:29:07.643Z,77.57
2022-10-24T02:31:40.971Z,72.75
2022-10-24T02:36:41.791Z,75.80
2022-10-24T02:39:11.663Z,66.90
2022-10-24T02:41:44.009Z,77.53
2022-10-24T02:44:15.226Z,67.10
2022-10-24T02:46:46.093Z,69.47
2022-10-24T02:49:15.194Z,58.40
2022-10-24T02:51:45.561Z,67.32
2022-10-24T02:56:46.561Z,78.30
2022-10-24T02:59:15.164Z,67.05
2022-10-24T03:01:45.528Z,76.05
2022-10-24T03:06:42.768Z,62.03
2022-10-24T03:09:11.490Z,64.35
2022-10-24T03:11:40.244Z,70.72
2022-10-24T03:14:08.942Z,74.72
2022-10-24T03:16:37.194Z,66.15
2022-10-24T03:19:07.362Z,73.72
2022-10-24T03:21:36.873Z,66.85
2022-10-24T03:24:05.899Z,69.35
2022-10-24T03:26:34.752Z,83.78
2022-10-24T03:29:03.369Z,82.80
2022-10-24T03:31:32.799Z,69.22
2022-10-24T03:34:01.579Z,82.28
2022-10-24T03:36:31.602Z,97.68
2022-10-24T03:39:00.342Z,110.13
2022-10-24T03:41:29.207Z,98.50
2022-10-24T03:43:58.267Z,90.15
2022-10-24T03:46:26.547Z,82.95
2022-10-24T03:48:55.337Z,64.68
2022-10-24T03:51:24.014Z,59.25
2022-10-24T03:53:54.123Z,56.28
2022-10-24T03:56:22.892Z,56.22
2022-10-24T03:58:51.295Z,57.33
2022-10-24T04:01:20.067Z,55.67
2022-10-24T04:03:48.967Z,51.08
2022-10-24T04:06:17.634Z,53.35
2022-10-24T04:08:46.335Z,60.85
2022-10-24T04:11:16.392Z,53.50
2022-10-24T04:13:44.734Z,56.67
2022-10-24T04:16:13.318Z,53.58
2022-10-24T04:18:42.042Z,53.72
2022-10-24T04:21:10.736Z,48.55
2022-10-24T04:23:41.311Z,53.47
2022-10-24T04:26:10.393Z,51.45
2022-10-24T04:28:42.289Z,47.45
2022-10-24T04:31:11.202Z,51.75
2022-10-24T04:33:40.057Z,49.17
2022-10-24T04:36:09.237Z,55.20
2022-10-24T04:38:37.951Z,49.15
2022-10-24T04:41:09.797Z,51.08
2022-10-24T04:43:41.867Z,52.92
2022-10-24T04:46:10.508Z,54.40
2022-10-24T04:48:39.214Z,47.95
2022-10-24T04:51:08.429Z,51.45
2022-10-24T04:53:37.117Z,48.78
2022-10-24T04:56:06.515Z,70.43
2022-10-24T04:58:34.838Z,46.90
2022-10-24T05:01:05.508Z,47.72
2022-10-24T05:03:35.539Z,50.08
2022-10-24T05:06:04.206Z,47.92
2022-10-24T05:08:33.954Z,48.80
2022-10-24T05:11:02.653Z,48.17
2022-10-24T05:13:34.317Z,50.22
2022-10-24T05:16:07.103Z,44.88
2022-10-24T05:21:04.545Z,49.65
2022-10-24T05:23:33.439Z,45.53
2022-10-24T05:26:01.958Z,51.40
2022-10-24T05:28:30.731Z,44.70
2022-10-24T05:30:59.402Z,49.38
2022-10-24T05:33:29.734Z,48.42
2022-10-24T05:38:27.341Z,49.22
2022-10-24T05:40:55.680Z,44.90
2022-10-24T05:43:24.322Z,48.38
2022-10-24T05:45:53.007Z,49.42
2022-10-24T05:48:21.709Z,45.17
2022-10-24T05:50:51.682Z,46.92
2022-10-24T05:53:20.292Z,41.33
2022-10-24T05:55:48.606Z,51.95
2022-10-24T05:58:21.078Z,47.67
2022-10-24T06:00:53.727Z,44.03
2022-10-24T06:03:22.964Z,51.50
2022-10-24T06:06:19.251Z,50.22
2022-10-24T06:08:48.453Z,52.22
2022-10-24T06:11:17.340Z,54.80
2022-10-24T06:13:45.644Z,52.28
2022-10-24T06:16:14.340Z,36.97
2022-10-24T06:18:42.957Z,58.47
2022-10-24T06:21:13.619Z,63.83
2022-10-24T06:23:42.238Z,53.75
2022-10-24T06:26:11.738Z,55.70
2022-10-24T06:28:40.697Z,55.95
2022-10-24T06:31:11.132Z,44.10
2022-10-24T06:33:40.124Z,42.50
2022-10-24T06:36:10.452Z,43.95
2022-10-24T06:38:40.629Z,49.60
2022-10-24T06:41:10.313Z,40.15
2022-10-24T06:43:39.327Z,42.05
2022-10-24T06:46:08.336Z,46.22
2022-10-24T06:48:37.653Z,37.08
2022-10-24T06:51:06.507Z,42.40
2022-10-24T06:53:35.278Z,40.08
2022-10-24T06:56:06.616Z,40.72
2022-10-24T06:58:35.567Z,40.47
2022-10-24T07:01:09.223Z,40.60
2022-10-24T07:03:37.970Z,47.08
2022-10-24T07:06:10.725Z,52.38
2022-10-24T07:08:39.481Z,43.33
2022-10-24T07:11:09.558Z,46.67
2022-10-24T07:13:37.952Z,42.63
2022-10-24T07:16:07.336Z,43.72
2022-10-24T07:18:36.070Z,41.63
2022-10-24T07:21:05.620Z,43.45
2022-10-24T07:23:35.113Z,46.40
2022-10-24T07:26:04.668Z,46.45
2022-10-24T07:28:34.976Z,44.35
2022-10-24T07:31:03.926Z,44.78
2022-10-24T07:33:33.002Z,41.08
2022-10-24T07:36:01.670Z,38.35
2022-10-24T07:38:30.543Z,38.05
2022-10-24T07:41:00.773Z,39.20
2022-10-24T07:43:29.014Z,36.78
2022-10-24T07:45:58.995Z,33.17
2022-10-24T07:48:27.753Z,36.53
2022-10-24T07:50:56.317Z,40.10
2022-10-24T07:53:26.155Z,34.70
2022-10-24T07:55:55.220Z,36.08
2022-10-24T07:58:23.916Z,33.35
2022-10-24T08:00:52.525Z,35.00
2022-10-24T08:03:22.601Z,36.75
2022-10-24T08:05:57.185Z,35.03
2022-10-24T08:08:36.224Z,36.42
2022-10-24T08:11:09.319Z,35.05
2022-10-24T08:13:38.707Z,37.40
2022-10-24T08:16:08.653Z,34.83
2022-10-24T08:18:39.955Z,33.90
2022-10-24T08:21:10.633Z,34.30
2022-10-24T08:23:41.052Z,33.20
2022-10-24T08:28:37.816Z,36.08
2022-10-24T08:31:08.478Z,28.85
2022-10-24T08:33:38.698Z,39.90
2022-10-24T08:36:15.714Z,32.35
2022-10-24T08:38:44.446Z,28.30
2022-10-24T08:41:17.606Z,33.53
2022-10-24T08:43:45.863Z,29.48
2022-10-24T08:46:33.271Z,34.72
2022-10-24T08:49:06.951Z,31.80
2022-10-24T08:51:41.534Z,28.00
2022-10-24T08:54:12.737Z,30.77
2022-10-24T08:56:42.122Z,28.65
2022-10-24T08:59:12.427Z,30.05
2022-10-24T09:01:45.359Z,27.02
2022-10-24T09:04:17.879Z,29.33
2022-10-24T09:06:47.466Z,27.00
2022-10-24T09:09:21.318Z,26.55
2022-10-24T09:11:52.964Z,29.40
2022-10-24T09:14:23.316Z,25.48
2022-10-24T09:16:54.377Z,28.75
2022-10-24T09:19:26.259Z,29.83
2022-10-24T09:21:56.013Z,24.02
2022-10-24T09:24:39.281Z,25.48
2022-10-24T09:27:12.792Z,22.50
2022-10-24T09:29:41.476Z,24.33
2022-10-24T09:32:16.734Z,29.10
2022-10-24T09:34:46.977Z,24.08
2022-10-24T09:37:44.031Z,32.72
2022-10-24T09:40:19.955Z,22.95
2022-10-24T09:42:52.297Z,24.48
2022-10-24T09:45:31.187Z,28.92
2022-10-24T09:48:02.939Z,29.55
2022-10-24T09:50:34.607Z,27.67
2022-10-24T09:53:04.396Z,24.73
2022-10-24T09:55:34.431Z,25.92
2022-10-24T09:58:05.475Z,32.85
2022-10-24T10:00:36.331Z,22.83
2022-10-24T10:03:07.342Z,23.73
2022-10-24T10:05:48.500Z,27.60
2022-10-24T10:08:20.892Z,28.10
2022-10-24T10:11:00.865Z,25.35
2022-10-24T10:16:00.801Z,27.50
2022-10-24T10:18:35.495Z,23.70
2022-10-24T10:21:09.450Z,21.48
2022-10-24T10:23:40.009Z,24.35
2022-10-24T10:26:20.446Z,24.83
2022-10-24T10:29:00.623Z,22.05
2022-10-24T10:31:35.888Z,22.60
2022-10-24T10:34:16.103Z,21.13
2022-10-24T10:37:04.157Z,20.25
2022-10-24T10:39:46.971Z,23.35
2022-10-24T10:42:19.070Z,20.02
2022-10-24T10:44:59.384Z,17.80
2022-10-24T10:50:04.947Z,19.92
2022-10-24T10:52:41.800Z,16.15
2022-10-24T10:55:27.283Z,13.80
2022-10-24T10:58:02.188Z,16.48
2022-10-24T11:00:37.677Z,12.68
2022-10-24T11:03:18.612Z,15.98
2022-10-24T11:05:55.335Z,14.95
2022-10-24T11:08:39.973Z,16.50
2022-10-24T11:11:12.572Z,13.70
2022-10-24T11:13:44.837Z,19.33
2022-10-24T11:16:15.922Z,20.77
2022-10-24T11:18:47.953Z,14.50
2022-10-24T11:21:17.971Z,18.63
2022-10-24T11:23:51.700Z,15.23
2022-10-24T11:26:24.193Z,13.52
2022-10-24T11:28:57.555Z,16.55
2022-10-24T11:31:29.507Z,17.58
2022-10-24T11:34:01.934Z,11.40
2022-10-24T11:36:33.924Z,17.35
2022-10-24T11:39:08.341Z,19.17
2022-10-24T11:41:46.494Z,19.33
2022-10-24T11:44:30.757Z,12.98
2022-10-24T11:47:08.863Z,14.73
2022-10-24T11:49:40.610Z,49.17
2022-10-24T11:52:15.933Z,12.00
2022-10-24T11:54:51.098Z,13.13
2022-10-24T11:57:23.673Z,10.00
2022-10-24T11:59:54.273Z,20.25
2022-10-24T12:03:12.966Z,12.43
2022-10-24T12:05:53.183Z,17.52
2022-10-24T12:08:36.284Z,9.52
2022-10-24T12:11:33.307Z,9.63
2022-10-24T12:14:40.429Z,9.50
2022-10-24T12:17:20.234Z,10.25
2022-10-24T12:19:51.312Z,9.20
2022-10-24T12:22:23.870Z,9.50
2022-10-24T12:25:05.033Z,7.70
2022-10-24T12:27:39.576Z,9.35
2022-10-24T12:30:17.606Z,14.50
2022-10-24T12:32:47.789Z,9.95
2022-10-24T12:35:53.050Z,9.48
2022-10-24T12:39:09.268Z,8.55
2022-10-24T12:41:45.584Z,11.90
2022-10-24T12:44:46.015Z,11.35
2022-10-24T12:47:32.767Z,9.30
2022-10-24T12:50:54.917Z,14.50
2022-10-24T12:53:38.350Z,8.38
2022-10-24T12:56:15.798Z,12.63
2022-10-24T12:58:47.069Z,15.32
2022-10-24T13:01:29.791Z,10.57
2022-10-24T13:04:30.632Z,10.48
2022-10-24T13:07:40.644Z,9.45
2022-10-24T13:10:20.165Z,8.15
2022-10-24T13:12:59.179Z,10.57
2022-10-24T13:15:40.064Z,9.57
2022-10-24T13:18:25.091Z,12.48
2022-10-24T13:21:15.358Z,12.57
2022-10-24T13:23:45.320Z,14.32
2022-10-24T13:26:37.938Z,9.77
2022-10-24T13:29:06.888Z,12.43
2022-10-24T13:31:44.067Z,14.13
2022-10-24T13:34:25.278Z,11.70
2022-10-24T13:37:01.928Z,9.98
2022-10-24T13:39:37.456Z,10.27
2022-10-24T13:42:13.077Z,9.25
2022-10-24T13:44:47.400Z,11.85
2022-10-24T13:47:19.911Z,13.43
2022-10-24T13:49:59.699Z,11.77
2022-10-24T13:52:36.535Z,10.68
2022-10-24T13:55:18.479Z,9.85
2022-10-24T13:57:56.521Z,10.90
2022-10-24T14:00:27.068Z,11.27
2022-10-24T14:02:56.844Z,14.20
2022-10-24T14:05:32.002Z,13.73
2022-10-24T14:08:01.375Z,11.43
2022-10-24T14:10:30.561Z,14.40
2022-10-24T14:13:00.512Z,11.60
2022-10-24T14:15:31.904Z,11.10
2022-10-24T14:18:03.118Z,12.52
2022-10-24T14:20:36.745Z,10.43
2022-10-24T14:23:17.399Z,17.70
2022-10-24T14:28:20.423Z,17.15
2022-10-24T14:30:55.132Z,13.15
2022-10-24T14:33:25.817Z,10.30
2022-10-24T14:35:58.189Z,13.75
2022-10-24T14:38:27.653Z,18.25
2022-10-24T14:41:08.296Z,14.77
2022-10-24T14:43:40.139Z,9.23
2022-10-24T14:46:28.128Z,16.52
2022-10-24T14:48:56.881Z,13.20
2022-10-24T14:51:31.144Z,12.65
2022-10-24T14:54:02.681Z,16.73
2022-10-24T14:56:33.993Z,11.77
2022-10-24T14:59:06.277Z,18.33
2022-10-24T15:01:34.628Z,19.60
2022-10-24T15:04:05.658Z,15.95
2022-10-24T15:06:41.041Z,21.15
2022-10-24T15:09:18.219Z,19.83
2022-10-24T15:11:48.408Z,19.88
2022-10-24T15:14:39.156Z,23.23
2022-10-24T15:17:22.473Z,19.65
2022-10-24T15:19:51.853Z,16.67
2022-10-24T15:22:27.209Z,15.00
2022-10-24T15:24:57.632Z,13.57
2022-10-24T15:27:28.745Z,18.30
2022-10-24T15:29:57.889Z,30.75
2022-10-24T15:32:26.636Z,14.13
2022-10-24T15:34:56.002Z,22.67
2022-10-24T15:37:28.666Z,17.08
2022-10-24T15:39:57.589Z,28.00
2022-10-24T15:42:26.572Z,22.85
2022-10-24T15:44:55.535Z,15.93
2022-10-24T15:47:24.618Z,23.42
2022-10-24T15:49:52.961Z,20.70
2022-10-24T15:52:21.787Z,22.52
2022-10-24T15:54:51.904Z,20.80
2022-10-24T15:57:21.153Z,27.55
2022-10-24T15:59:49.961Z,25.63
2022-10-24T16:02:24.023Z,26.65
2022-10-24T16:04:52.566Z,25.23
2022-10-24T16:07:21.341Z,22.05
2022-10-24T16:09:51.544Z,24.08
2022-10-24T16:12:20.280Z,24.58
2022-10-24T16:14:49.253Z,22.15
2022-10-24T16:17:17.814Z,27.20
2022-10-24T16:19:46.542Z,32.33
2022-10-24T16:22:15.586Z,27.33
2022-10-24T16:24:44.330Z,32.53
2022-10-24T16:27:14.471Z,28.88
2022-10-24T16:29:45.940Z,31.25
2022-10-24T16:32:14.761Z,33.28
2022-10-24T16:34:44.743Z,34.25
2022-10-24T16:37:13.393Z,39.05
2022-10-24T16:39:42.664Z,33.13
2022-10-24T16:42:11.316Z,34.58
2022-10-24T16:44:41.520Z,39.00
2022-10-24T16:47:10.299Z,36.17
2022-10-24T16:49:38.730Z,42.90
2022-10-24T16:52:07.482Z,42.08
2022-10-24T16:54:36.317Z,37.72
2022-10-24T16:57:05.202Z,33.85
2022-10-24T16:59:33.937Z,39.58
2022-10-24T17:02:04.085Z,40.42
2022-10-24T17:04:33.866Z,47.38
2022-10-24T17:09:33.349Z,47.47
2022-10-24T17:12:02.014Z,38.90
2022-10-24T17:14:31.148Z,47.28
2022-10-24T17:17:00.001Z,44.35
2022-10-24T17:19:30.745Z,38.22
2022-10-24T17:21:59.800Z,34.10
2022-10-24T17:24:28.840Z,40.92
2022-10-24T17:26:58.111Z,39.15
2022-10-24T17:29:29.094Z,44.08
2022-10-24T17:31:57.756Z,50.90
2022-10-24T17:34:27.514Z,46.97
2022-10-24T17:37:02.786Z,43.22
2022-10-24T17:39:33.817Z,38.83
2022-10-24T17:42:02.830Z,31.92
2022-10-24T17:44:31.890Z,38.47
2022-10-24T17:47:00.874Z,42.70
2022-10-24T17:49:29.172Z,44.97
2022-10-24T17:51:59.354Z,45.83
2022-10-24T17:54:28.177Z,36.92
2022-10-24T17:56:56.790Z,37.15
2022-10-24T17:59:25.882Z,44.72
2022-10-24T18:01:54.409Z,39.58
2022-10-24T18:04:26.416Z,39.83
2022-10-24T18:07:05.755Z,36.67
2022-10-24T18:09:40.286Z,42.80
2022-10-24T18:12:16.011Z,37.40
2022-10-24T18:14:50.131Z,42.90
2022-10-24T18:17:40.703Z,41.13
2022-10-24T18:20:16.406Z,38.20
2022-10-24T18:22:46.798Z,34.10
2022-10-24T18:25:20.227Z,52.70
2022-10-24T18:27:51.930Z,41.55
2022-10-24T18:30:21.020Z,38.90
2022-10-24T18:32:50.487Z,40.42
2022-10-24T18:35:21.941Z,44.10
2022-10-24T18:40:22.600Z,44.83
2022-10-24T18:42:53.594Z,44.73
2022-10-24T18:45:24.054Z,41.97
2022-10-24T18:47:54.389Z,54.30
2022-10-24T18:50:24.945Z,49.78
2022-10-24T18:52:57.577Z,49.83
2022-10-24T18:55:28.109Z,51.97
2022-10-24T19:00:27.110Z,45.35
2022-10-24T19:03:03.159Z,48.85
2022-10-24T19:05:41.469Z,39.70
2022-10-24T19:08:14.973Z,43.47
2022-10-24T19:10:43.937Z,50.13
2022-10-24T19:13:13.428Z,46.33
2022-10-24T19:15:44.580Z,48.03
2022-10-24T19:18:15.716Z,45.28
2022-10-24T19:20:44.710Z,47.45
2022-10-24T19:23:17.491Z,43.22
2022-10-24T19:25:46.043Z,43.83
2022-10-24T19:28:18.126Z,41.55
2022-10-24T19:30:47.392Z,43.45
2022-10-24T19:33:16.644Z,45.38
2022-10-24T19:35:47.335Z,38.90
2022-10-24T19:38:18.428Z,37.28
2022-10-24T19:40:48.029Z,38.38
2022-10-24T19:43:16.752Z,37.78
2022-10-24T19:45:50.227Z,41.53
2022-10-24T19:48:19.789Z,40.53
2022-10-24T19:50:48.481Z,38.22
2022-10-24T19:53:18.589Z,37.70
2022-10-24T19:55:46.867Z,36.47
2022-10-24T19:58:18.898Z,38.90
2022-10-24T20:00:48.017Z,37.03
2022-10-24T20:03:17.362Z,37.35
2022-10-24T20:05:46.871Z,31.67
2022-10-24T20:08:19.696Z,39.33
2022-10-24T20:10:52.675Z,34.22
2022-10-24T20:13:21.534Z,29.48
2022-10-24T20:15:54.406Z,30.58
2022-10-24T20:18:23.482Z,30.92
2022-10-24T20:20:52.720Z,35.97
2022-10-24T20:23:23.951Z,31.98
2022-10-24T20:25:58.939Z,26.65
2022-10-24T20:28:27.903Z,38.35
2022-10-24T20:30:56.872Z,26.10
2022-10-24T20:33:25.536Z,30.38
2022-10-24T20:35:54.159Z,28.70
2022-10-24T20:38:24.208Z,25.90
2022-10-24T20:40:52.638Z,26.40
2022-10-24T20:43:21.469Z,25.63
2022-10-24T20:45:50.218Z,26.83
2022-10-24T20:48:18.921Z,29.88
2022-10-24T20:50:47.563Z,31.35
2022-10-24T20:53:16.652Z,27.02
2022-10-24T20:55:46.397Z,26.88
2022-10-24T20:58:15.077Z,29.30
2022-10-24T21:00:43.847Z,26.77
2022-10-24T21:03:14.393Z,25.70
2022-10-24T21:05:43.189Z,30.02
2022-10-24T21:08:11.989Z,28.63
2022-10-24T21:10:40.423Z,29.55
2022-10-24T21:13:10.482Z,29.55
2022-10-24T21:15:39.098Z,32.63
2022-10-24T21:18:07.747Z,30.63
2022-10-24T21:20:37.284Z,33.88
2022-10-24T21:23:05.863Z,19.83
2022-10-24T21:25:34.122Z,20.85
2022-10-24T21:28:02.781Z,30.00
2022-10-24T21:30:32.782Z,21.27
2022-10-24T21:33:01.603Z,23.13
2022-10-24T21:35:30.221Z,19.70
2022-10-24T21:37:58.904Z,19.85
2022-10-24T21:40:27.207Z,16.83
2022-10-24T21:42:55.849Z,18.58
2022-10-24T21:45:24.495Z,25.42
2022-10-24T21:47:54.486Z,23.38
2022-10-24T21:50:23.128Z,18.40
2022-10-24T21:52:51.400Z,18.33
2022-10-24T21:55:20.074Z,21.23
2022-10-24T21:57:48.710Z,18.15
2022-10-24T22:00:17.658Z,18.30
2022-10-24T22:02:46.719Z,17.95
2022-10-24T22:05:19.226Z,17.63
2022-10-24T22:07:49.812Z,17.25
2022-10-24T22:10:20.162Z,17.10
2022-10-24T22:12:48.741Z,18.10
2022-10-24T22:15:17.592Z,16.50
2022-10-24T22:17:46.502Z,16.80
2022-10-24T22:20:16.868Z,21.60
2022-10-24T22:22:45.082Z,14.82
2022-10-24T22:25:13.773Z,16.58
2022-10-24T22:27:42.368Z,27.73
2022-10-24T22:30:11.654Z,18.30
2022-10-24T22:32:40.547Z,22.52
2022-10-24T22:35:11.246Z,26.63
2022-10-24T22:37:41.657Z,17.02
2022-10-24T22:40:18.330Z,18.75
2022-10-24T22:42:47.665Z,16.52
2022-10-24T22:45:17.853Z,17.97
2022-10-24T22:48:11.257Z,17.70
2022-10-24T22:50:49.199Z,16.13
2022-10-24T22:53:21.378Z,18.90
2022-10-24T22:56:04.515Z,16.23
2022-10-24T22:58:33.862Z,17.67
2022-10-24T23:01:06.839Z,18.92
2022-10-24T23:03:42.155Z,21.80
2022-10-24T23:06:14.906Z,20.27
2022-10-24T23:08:45.835Z,18.48
2022-10-24T23:11:15.426Z,19.70
2022-10-24T23:13:44.327Z,18.80
2022-10-24T23:16:21.341Z,17.33
2022-10-24T23:18:50.495Z,22.52
2022-10-24T23:21:23.908Z,22.75
2022-10-24T23:23:54.646Z,20.40
2022-10-24T23:26:30.737Z,18.55
2022-10-24T23:29:02.141Z,19.10
2022-10-24T23:31:31.258Z,16.42
2022-10-24T23:34:00.437Z,20.42
2022-10-24T23:36:30.195Z,21.38
2022-10-24T23:39:01.021Z,17.00
2022-10-24T23:41:30.042Z,18.85
2022-10-24T23:43:59.268Z,20.63
2022-10-24T23:46:32.156Z,18.58
2022-10-24T23:49:09.957Z,22.23
2022-10-24T23:51:42.500Z,20.05
2022-10-24T23:54:14.053Z,17.05
2022-10-24T23:56:43.102Z,21.90
2022-10-24T23:59:11.726Z,16.45
